Time;durP1;ratioP1;P1;durP2;ratioP2;P2;SDS_P1;SDS_P2;PMS_P1;PMS_P2;Temp;Humidity;BMP_temperature;BMP_pressure;BME280_temperature;BME280_humidity;BME280_pressure;Samples;Min_cycle;Max_cycle;Signal;HPM_P1;HPM_P2
2021/12/07 00:00:31;;;;;;;9.77;5.70;;;;;3.50;99820.00;;;;5013212;28;20255;-72
2021/12/07 00:03:20;;;;;;;9.03;5.00;;;;;3.40;99819.00;;;;5007982;28;20214;-72
2021/12/07 00:06:08;;;;;;;8.70;4.80;;;;;3.40;99806.00;;;;5007888;28;20225;-71
2021/12/07 00:08:56;;;;;;;10.40;4.97;;;;;3.40;99824.00;;;;5004780;28;20204;-73
2021/12/07 00:11:44;;;;;;;8.67;4.87;;;;;3.30;99810.00;;;;5022843;28;20205;-71
2021/12/07 00:14:37;;;;;;;8.67;4.73;;;;;3.40;99806.00;;;;5020398;28;20201;-71
2021/12/07 00:17:23;;;;;;;9.40;5.20;;;;;3.40;99813.00;;;;5019841;28;21030;-72
2021/12/07 00:20:14;;;;;;;7.97;4.97;;;;;3.30;99826.00;;;;5014075;28;20721;-70
2021/12/07 00:23:05;;;;;;;11.13;5.80;;;;;3.30;99819.00;;;;5001341;28;20213;-71
2021/12/07 00:25:51;;;;;;;8.43;5.20;;;;;3.40;99826.00;;;;5000484;28;20206;-70
2021/12/07 00:28:37;;;;;;;8.50;5.17;;;;;3.30;99817.00;;;;4998569;28;20745;-73
2021/12/07 00:31:27;;;;;;;9.83;5.47;;;;;3.40;99823.00;;;;5003092;28;20228;-71
2021/12/07 00:34:24;;;;;;;7.73;4.93;;;;;3.40;99820.00;;;;4995948;28;20226;-71
2021/12/07 00:37:12;;;;;;;7.87;5.17;;;;;3.30;99807.00;;;;4996162;28;20838;-72
2021/12/07 00:39:59;;;;;;;7.70;4.83;;;;;3.30;99810.00;;;;5005013;28;20725;-71
2021/12/07 00:42:46;;;;;;;8.67;5.10;;;;;3.40;99801.00;;;;4999551;28;20313;-71
2021/12/07 00:45:34;;;;;;;8.07;5.00;;;;;3.40;99819.00;;;;5019671;28;20210;-69
2021/12/07 00:48:20;;;;;;;10.97;5.73;;;;;3.40;99830.00;;;;5021163;28;20580;-71
2021/12/07 00:51:07;;;;;;;9.23;5.23;;;;;3.40;99821.00;;;;5014527;28;20701;-71
2021/12/07 00:53:55;;;;;;;7.80;4.97;;;;;3.40;99824.00;;;;5016309;28;20340;-72
2021/12/07 00:56:41;;;;;;;8.27;4.70;;;;;3.50;99826.00;;;;5019019;28;20217;-72
2021/12/07 00:59:28;;;;;;;8.33;5.07;;;;;3.40;99826.00;;;;4994582;28;20211;-71
2021/12/07 01:02:14;;;;;;;9.47;4.97;;;;;3.40;99828.00;;;;5018713;28;20253;-71
2021/12/07 01:05:09;;;;;;;9.10;5.33;;;;;3.40;99833.00;;;;5014767;28;20209;-72
2021/12/07 01:08:14;;;;;;;9.03;5.10;;;;;3.40;99821.00;;;;5016153;28;20262;-71
2021/12/07 01:26:28;;;;;;;12.47;5.40;;;;;3.40;99852.00;;;;5018743;28;20237;-72
2021/12/07 01:29:16;;;;;;;12.60;5.10;;;;;3.40;99849.00;;;;5021028;28;20213;-69
2021/12/07 01:32:12;;;;;;;9.23;4.80;;;;;3.50;99855.00;;;;5012673;28;20234;-71
2021/12/07 01:38:31;;;;;;;8.27;4.57;;;;;3.40;99870.00;;;;5013782;28;20249;-70
2021/12/07 01:41:28;;;;;;;7.53;4.50;;;;;3.40;99871.00;;;;5011242;28;20221;-72
2021/12/07 01:44:34;;;;;;;8.60;5.10;;;;;3.60;99870.00;;;;5003904;28;20220;-72
2021/12/07 01:47:35;;;;;;;9.27;5.40;;;;;3.60;99875.00;;;;5003778;28;20403;-72
2021/12/07 01:50:47;;;;;;;11.10;6.20;;;;;3.50;99875.00;;;;5016979;28;20209;-72
2021/12/07 01:59:43;;;;;;;10.37;6.20;;;;;3.60;99881.00;;;;5017245;28;20219;-72
2021/12/07 02:02:30;;;;;;;8.93;5.83;;;;;3.70;99899.00;;;;5011443;28;20222;-72
2021/12/07 02:05:17;;;;;;;12.47;7.07;;;;;3.60;99903.00;;;;5022400;28;20256;-73
2021/12/07 02:08:04;;;;;;;11.97;7.33;;;;;3.50;99904.00;;;;5009830;28;20274;-73
2021/12/07 02:10:53;;;;;;;12.07;7.43;;;;;3.40;99899.00;;;;5019487;28;20255;-72
2021/12/07 02:16:47;;;;;;;13.47;8.00;;;;;3.50;99909.00;;;;5011228;28;20268;-72
2021/12/07 02:19:34;;;;;;;16.67;8.27;;;;;3.50;99907.00;;;;5012155;28;20981;-73
2021/12/07 02:22:22;;;;;;;16.87;8.33;;;;;3.50;99920.00;;;;5019049;28;20206;-72
2021/12/07 02:25:12;;;;;;;14.83;8.77;;;;;3.40;99924.00;;;;5017077;28;20209;-71
2021/12/07 02:27:59;;;;;;;16.87;8.63;;;;;3.30;99928.00;;;;5000080;28;20217;-72
2021/12/07 02:30:46;;;;;;;15.17;8.47;;;;;3.30;99921.00;;;;5003125;28;20202;-72
2021/12/07 02:33:33;;;;;;;13.80;7.73;;;;;3.20;99925.00;;;;5002946;28;20217;-72
2021/12/07 02:36:20;;;;;;;15.00;7.97;;;;;3.30;99933.00;;;;5008621;28;20327;-73
2021/12/07 02:39:10;;;;;;;13.87;7.47;;;;;3.30;99926.00;;;;5017987;28;20200;-72
2021/12/07 02:41:56;;;;;;;12.87;7.50;;;;;3.20;99943.00;;;;5009862;28;20303;-72
2021/12/07 02:44:42;;;;;;;13.07;6.30;;;;;3.20;99947.00;;;;5019885;28;20207;-71
2021/12/07 02:47:29;;;;;;;13.70;7.37;;;;;3.30;99948.00;;;;5016439;28;20262;-72
2021/12/07 02:50:16;;;;;;;12.77;7.53;;;;;3.20;99953.00;;;;5018627;28;20600;-71
2021/12/07 02:53:03;;;;;;;13.13;7.07;;;;;3.30;99957.00;;;;5005586;28;20287;-72
2021/12/07 02:55:51;;;;;;;12.87;6.70;;;;;3.20;99960.00;;;;5014857;28;20794;-71
2021/12/07 02:58:41;;;;;;;12.73;6.37;;;;;3.30;99964.00;;;;5022271;28;20209;-71
2021/12/07 03:01:32;;;;;;;11.80;7.13;;;;;3.20;99978.00;;;;5015143;28;20230;-71
2021/12/07 03:04:24;;;;;;;13.03;6.97;;;;;3.20;99986.00;;;;5016468;28;20337;-71
2021/12/07 03:07:18;;;;;;;13.30;7.03;;;;;3.10;99984.00;;;;5019870;28;20762;-72
2021/12/07 03:28:31;;;;;;;14.90;8.23;;;;;3.20;100010.00;;;;5019247;28;20218;-70
2021/12/07 03:31:19;;;;;;;15.37;8.43;;;;;3.20;100008.00;;;;5019828;28;20292;-73
2021/12/07 03:34:06;;;;;;;18.87;9.40;;;;;3.30;100006.00;;;;5023683;28;20692;-69
2021/12/07 03:36:52;;;;;;;18.30;8.77;;;;;3.30;100012.00;;;;5015904;28;20226;-72
2021/12/07 03:39:41;;;;;;;18.17;8.90;;;;;3.40;100010.00;;;;5020135;28;20701;-71
2021/12/07 03:42:27;;;;;;;18.17;8.90;;;;;3.20;100021.00;;;;5020421;28;20227;-71
2021/12/07 03:45:15;;;;;;;16.60;9.23;;;;;3.20;100032.00;;;;5019435;28;20210;-70
2021/12/07 03:48:04;;;;;;;18.33;8.93;;;;;3.10;100039.00;;;;5005912;28;20230;-70
2021/12/07 03:50:50;;;;;;;21.13;9.80;;;;;3.20;100031.00;;;;5022970;28;20879;-70
2021/12/07 03:53:37;;;;;;;17.03;9.43;;;;;3.30;100032.00;;;;5016949;28;20300;-71
2021/12/07 03:56:24;;;;;;;22.03;11.07;;;;;3.30;100034.00;;;;5021371;28;20280;-70
2021/12/07 03:59:10;;;;;;;21.30;10.50;;;;;3.30;100041.00;;;;5020058;28;20249;-68
2021/12/07 04:01:57;;;;;;;23.63;11.67;;;;;3.20;100041.00;;;;5004080;28;20219;-71
2021/12/07 04:04:44;;;;;;;22.53;10.77;;;;;3.20;100048.00;;;;5022505;28;20209;-70
2021/12/07 04:07:30;;;;;;;22.73;11.57;;;;;3.10;100053.00;;;;5021296;28;20225;-70
2021/12/07 04:10:19;;;;;;;19.53;10.33;;;;;3.10;100054.00;;;;5022799;28;20700;-71
2021/12/07 04:13:06;;;;;;;25.07;11.93;;;;;3.20;100066.00;;;;5013685;28;20213;-70
2021/12/07 04:15:53;;;;;;;23.27;11.10;;;;;3.20;100068.00;;;;5012346;28;20221;-71
2021/12/07 04:18:41;;;;;;;21.43;10.83;;;;;3.20;100073.00;;;;5021889;28;20336;-70
2021/12/07 04:21:27;;;;;;;25.87;11.80;;;;;3.20;100076.00;;;;5020072;28;20229;-71
2021/12/07 04:24:13;;;;;;;26.60;11.97;;;;;3.30;100085.00;;;;5021806;28;20205;-73
2021/12/07 04:27:00;;;;;;;26.97;11.53;;;;;3.30;100070.00;;;;5014151;28;20233;-71
2021/12/07 04:29:48;;;;;;;27.87;11.80;;;;;3.30;100084.00;;;;5011034;28;20205;-72
2021/12/07 04:32:34;;;;;;;23.30;11.57;;;;;3.30;100098.00;;;;5023500;28;20221;-71
2021/12/07 04:35:22;;;;;;;23.87;12.40;;;;;3.30;100087.00;;;;5016006;28;20580;-72
2021/12/07 04:38:09;;;;;;;25.00;11.00;;;;;3.20;100087.00;;;;5022469;28;20346;-71
2021/12/07 04:40:55;;;;;;;23.27;11.53;;;;;3.20;100098.00;;;;5006459;28;20205;-73
2021/12/07 04:43:42;;;;;;;23.47;11.10;;;;;3.10;100094.00;;;;5017751;28;20205;-72
2021/12/07 04:46:35;;;;;;;26.67;11.60;;;;;3.10;100105.00;;;;5019905;28;20767;-71
2021/12/07 04:49:53;;;;;;;19.50;10.60;;;;;3.00;100106.00;;;;5024352;28;20229;-72
2021/12/07 04:58:45;;;;;;;20.67;10.67;;;;;3.00;100127.00;;;;5002770;28;20221;-71
2021/12/07 05:01:31;;;;;;;20.83;10.83;;;;;3.00;100113.00;;;;5011500;28;20221;-71
2021/12/07 05:04:22;;;;;;;27.37;11.80;;;;;3.00;100112.00;;;;5018724;28;20835;-72
2021/12/07 05:07:13;;;;;;;22.70;11.33;;;;;3.10;100116.00;;;;5021684;28;20218;-71
2021/12/07 05:16:29;;;;;;;18.10;9.27;;;;;3.00;100129.00;;;;5013331;28;20233;-72
2021/12/07 05:37:39;;;;;;;22.87;10.23;;;;;2.80;100154.00;;;;5018310;28;20224;-70
2021/12/07 05:37:56;;;;;;;21.83;10.93;;;;;2.70;100147.00;;;;5008198;28;20904;-71
2021/12/07 05:40:43;;;;;;;20.63;10.10;;;;;2.60;100152.00;;;;5020537;28;20251;-71
2021/12/07 05:43:31;;;;;;;21.27;9.83;;;;;2.60;100160.00;;;;5019628;28;20229;-71
2021/12/07 05:46:18;;;;;;;21.70;9.80;;;;;2.60;100174.00;;;;5021017;28;20229;-71
2021/12/07 05:49:04;;;;;;;18.03;9.93;;;;;2.50;100170.00;;;;5012705;28;20210;-71
2021/12/07 05:51:51;;;;;;;21.27;10.27;;;;;2.50;100179.00;;;;5010143;28;20213;-71
2021/12/07 05:54:37;;;;;;;23.33;9.97;;;;;2.50;100190.00;;;;5019306;28;20214;-71
2021/12/07 05:57:25;;;;;;;20.30;10.43;;;;;2.50;100188.00;;;;5016087;28;20306;-71
2021/12/07 06:00:17;;;;;;;22.20;10.20;;;;;2.40;100197.00;;;;5021011;28;20209;-70
2021/12/07 06:03:05;;;;;;;20.43;10.50;;;;;2.50;100193.00;;;;5015126;28;20229;-71
2021/12/07 06:05:52;;;;;;;20.27;10.33;;;;;2.40;100191.00;;;;5012558;28;20205;-72
2021/12/07 06:08:39;;;;;;;17.73;9.37;;;;;2.30;100213.00;;;;5019992;28;20800;-72
2021/12/07 06:11:25;;;;;;;21.27;10.23;;;;;2.40;100213.00;;;;5021962;28;20680;-71
2021/12/07 06:14:18;;;;;;;19.53;9.77;;;;;2.40;100225.00;;;;5010099;28;20332;-72
2021/12/07 06:17:04;;;;;;;19.77;9.27;;;;;2.50;100224.00;;;;5009787;28;20230;-71
2021/12/07 06:19:51;;;;;;;23.07;10.80;;;;;2.50;100227.00;;;;5012629;28;20206;-73
2021/12/07 06:22:38;;;;;;;20.07;9.53;;;;;2.60;100228.00;;;;5016994;28;20222;-72
2021/12/07 06:25:24;;;;;;;23.70;10.50;;;;;2.80;100239.00;;;;5025156;28;20213;-71
2021/12/07 06:28:11;;;;;;;19.50;10.03;;;;;2.80;100246.00;;;;5016920;28;20696;-71
2021/12/07 06:31:01;;;;;;;23.43;9.83;;;;;2.80;100244.00;;;;5002257;28;20229;-71
2021/12/07 06:33:48;;;;;;;21.83;10.30;;;;;2.80;100244.00;;;;5020407;28;20209;-71
2021/12/07 06:36:34;;;;;;;20.93;9.43;;;;;2.80;100245.00;;;;5019035;28;20238;-71
2021/12/07 06:39:22;;;;;;;28.27;10.63;;;;;2.80;100245.00;;;;5020777;28;20209;-72
2021/12/07 06:42:08;;;;;;;21.60;9.70;;;;;2.80;100250.00;;;;5012183;28;20278;-71
2021/12/07 06:44:54;;;;;;;24.10;9.83;;;;;2.70;100237.00;;;;5012412;28;20700;-71
2021/12/07 06:47:46;;;;;;;21.83;9.93;;;;;2.70;100247.00;;;;5001025;28;20332;-71
2021/12/07 06:50:32;;;;;;;22.60;10.10;;;;;2.70;100247.00;;;;5022777;28;20222;-72
2021/12/07 06:53:18;;;;;;;21.33;9.23;;;;;2.70;100251.00;;;;5018264;28;20209;-71
2021/12/07 06:56:06;;;;;;;21.17;9.00;;;;;2.80;100266.00;;;;5023748;28;20689;-70
2021/12/07 06:58:52;;;;;;;19.27;9.03;;;;;2.70;100272.00;;;;5013918;28;20230;-72
2021/12/07 07:01:38;;;;;;;16.57;8.43;;;;;2.70;100283.00;;;;5023494;28;20221;-72
2021/12/07 07:04:26;;;;;;;19.73;8.37;;;;;2.70;100285.00;;;;5022446;28;20720;-72
2021/12/07 07:07:12;;;;;;;20.00;8.50;;;;;2.70;100273.00;;;;5018845;28;20229;-72
2021/12/07 07:09:59;;;;;;;15.97;7.83;;;;;2.60;100280.00;;;;5007000;28;20210;-72
2021/12/07 07:12:47;;;;;;;19.93;8.50;;;;;2.60;100278.00;;;;5014191;28;20238;-71
2021/12/07 07:15:34;;;;;;;19.37;8.37;;;;;2.70;100287.00;;;;5025505;28;20343;-72
2021/12/07 07:18:21;;;;;;;16.57;7.67;;;;;2.70;100287.00;;;;5017850;28;20218;-71
2021/12/07 07:21:09;;;;;;;17.90;7.73;;;;;2.70;100308.00;;;;5022741;28;20620;-72
2021/12/07 07:23:56;;;;;;;18.10;8.10;;;;;2.70;100310.00;;;;5005098;28;20229;-72
2021/12/07 07:26:42;;;;;;;16.47;7.90;;;;;2.80;100325.00;;;;5018214;28;20233;-72
2021/12/07 07:29:28;;;;;;;22.50;7.87;;;;;2.90;100317.00;;;;5021961;28;20325;-71
2021/12/07 07:32:14;;;;;;;14.57;7.13;;;;;2.90;100330.00;;;;5002940;28;20346;-69
2021/12/07 07:35:02;;;;;;;21.60;7.43;;;;;3.00;100323.00;;;;5000272;28;20210;-71
2021/12/07 07:37:50;;;;;;;16.83;7.47;;;;;3.00;100318.00;;;;5003696;28;20242;-71
2021/12/07 07:40:37;;;;;;;16.70;6.93;;;;;3.00;100310.00;;;;5018760;28;20681;-71
2021/12/07 07:43:23;;;;;;;20.87;7.60;;;;;3.10;100299.00;;;;5018404;28;20250;-70
2021/12/07 07:46:09;;;;;;;18.63;7.70;;;;;3.10;100305.00;;;;5023231;28;20229;-70
2021/12/07 07:48:56;;;;;;;13.33;6.60;;;;;3.20;100315.00;;;;5015984;28;20249;-71
2021/12/07 07:51:43;;;;;;;17.07;6.57;;;;;3.20;100315.00;;;;5019757;28;20198;-71
2021/12/07 07:54:33;;;;;;;13.80;6.83;;;;;3.30;100318.00;;;;5019639;28;20755;-70
2021/12/07 07:57:20;;;;;;;13.27;6.77;;;;;3.20;100325.00;;;;5011972;28;20230;-72
2021/12/07 08:00:09;;;;;;;16.97;6.70;;;;;3.20;100323.00;;;;5021879;28;20260;-71
2021/12/07 08:02:56;;;;;;;16.50;6.87;;;;;3.20;100323.00;;;;5018024;28;20229;-72
2021/12/07 08:05:42;;;;;;;14.40;6.77;;;;;3.10;100331.00;;;;5026969;28;20202;-71
2021/12/07 08:08:29;;;;;;;13.00;5.97;;;;;3.10;100336.00;;;;5018682;28;20215;-71
2021/12/07 08:11:18;;;;;;;20.37;6.53;;;;;3.10;100345.00;;;;5008072;28;20214;-72
2021/12/07 08:14:11;;;;;;;10.10;5.70;;;;;3.10;100351.00;;;;5003601;28;20218;-68
2021/12/07 08:16:58;;;;;;;14.40;6.30;;;;;3.10;100342.00;;;;5010299;28;20719;-70
2021/12/07 08:19:44;;;;;;;13.23;5.73;;;;;3.00;100343.00;;;;5012832;28;20225;-69
2021/12/07 08:22:34;;;;;;;9.30;5.17;;;;;3.00;100355.00;;;;5020345;28;20568;-68
2021/12/07 08:25:20;;;;;;;12.03;5.80;;;;;3.10;100343.00;;;;5016464;28;20219;-68
2021/12/07 08:28:11;;;;;;;13.07;5.67;;;;;3.10;100335.00;;;;5019372;28;20847;-72
2021/12/07 08:30:58;;;;;;;13.23;6.23;;;;;3.10;100342.00;;;;5003612;28;20213;-71
2021/12/07 08:33:45;;;;;;;14.33;6.23;;;;;3.10;100337.00;;;;5007078;28;20232;-73
2021/12/07 08:36:31;;;;;;;12.67;5.73;;;;;3.10;100316.00;;;;5020468;28;20232;-73
2021/12/07 08:39:18;;;;;;;14.60;6.10;;;;;3.10;100316.00;;;;5022252;28;20268;-71
2021/12/07 08:42:06;;;;;;;22.57;5.90;;;;;3.40;100331.00;;;;5013382;28;20328;-72
2021/12/07 08:44:54;;;;;;;13.87;6.13;;;;;3.40;100326.00;;;;5011737;28;20721;-72
2021/12/07 08:47:40;;;;;;;14.23;6.17;;;;;3.50;100324.00;;;;5021883;28;20233;-72
2021/12/07 08:50:30;;;;;;;14.93;6.30;;;;;3.50;100320.00;;;;5011657;28;20359;-71
2021/12/07 08:53:19;;;;;;;15.17;6.43;;;;;3.60;100330.00;;;;5010669;28;20285;-72
2021/12/07 09:02:18;;;;;;;14.73;7.03;;;;;3.90;100335.00;;;;5005908;28;20699;-72
2021/12/07 09:05:05;;;;;;;21.00;7.23;;;;;3.90;100335.00;;;;5012023;28;20229;-75
2021/12/07 09:07:52;;;;;;;20.47;8.40;;;;;4.20;100311.00;;;;5021299;28;20229;-74
2021/12/07 09:10:38;;;;;;;17.47;8.10;;;;;4.00;100319.00;;;;5020841;28;20222;-74
2021/12/07 09:13:26;;;;;;;26.63;7.83;;;;;4.00;100332.00;;;;5016252;28;20243;-74
2021/12/07 09:16:17;;;;;;;22.77;8.00;;;;;4.10;100325.00;;;;5011196;28;20361;-74
2021/12/07 09:19:05;;;;;;;22.43;9.17;;;;;4.10;100326.00;;;;5013721;28;20209;-75
2021/12/07 09:21:52;;;;;;;20.33;8.50;;;;;4.20;100335.00;;;;5013532;28;20206;-75
2021/12/07 09:24:39;;;;;;;21.70;9.07;;;;;4.30;100335.00;;;;4995246;28;21046;-73
2021/12/07 09:27:25;;;;;;;22.07;8.87;;;;;4.30;100334.00;;;;5019266;28;20309;-75
2021/12/07 09:30:14;;;;;;;21.27;8.53;;;;;4.30;100355.00;;;;5009582;28;20641;-74
2021/12/07 09:33:01;;;;;;;22.67;9.03;;;;;4.40;100344.00;;;;4975275;28;20305;-74
2021/12/07 09:35:49;;;;;;;18.73;8.50;;;;;4.50;100368.00;;;;4987181;28;20234;-73
2021/12/07 09:38:36;;;;;;;18.87;8.77;;;;;4.50;100366.00;;;;4974712;28;20285;-73
2021/12/07 09:41:23;;;;;;;19.57;8.13;;;;;4.40;100364.00;;;;4976853;28;20230;-71
2021/12/07 09:44:10;;;;;;;19.60;8.90;;;;;4.60;100372.00;;;;4990321;28;20237;-72
2021/12/07 09:46:57;;;;;;;24.40;8.70;;;;;4.60;100370.00;;;;4987714;28;20238;-73
2021/12/07 09:49:43;;;;;;;24.00;8.97;;;;;4.60;100367.00;;;;4979342;28;20222;-74
2021/12/07 09:52:31;;;;;;;27.67;10.53;;;;;4.60;100372.00;;;;4987146;28;20261;-73
2021/12/07 09:55:18;;;;;;;28.50;10.57;;;;;4.70;100365.00;;;;4971037;28;20235;-74
2021/12/07 09:58:06;;;;;;;22.97;10.87;;;;;4.90;100376.00;;;;4982017;28;20914;-73
2021/12/07 10:00:53;;;;;;;23.80;11.13;;;;;4.80;100377.00;;;;4971541;28;20272;-75
2021/12/07 10:03:40;;;;;;;20.73;10.50;;;;;4.80;100370.00;;;;4994368;28;20998;-74
2021/12/07 10:06:26;;;;;;;26.40;11.07;;;;;4.90;100364.00;;;;4994433;28;20229;-73
2021/12/07 10:09:13;;;;;;;31.50;11.30;;;;;4.80;100366.00;;;;4991102;28;20335;-73
2021/12/07 10:11:59;;;;;;;27.43;11.83;;;;;5.00;100372.00;;;;4979969;28;20309;-73
2021/12/07 10:14:46;;;;;;;25.63;11.77;;;;;4.90;100363.00;;;;4976888;28;20228;-72
2021/12/07 10:17:37;;;;;;;32.97;12.00;;;;;5.00;100364.00;;;;4989065;28;20281;-73
2021/12/07 10:20:32;;;;;;;24.63;11.47;;;;;4.90;100360.00;;;;4980791;28;20246;-72
2021/12/07 10:23:26;;;;;;;38.80;12.77;;;;;5.10;100371.00;;;;5002124;28;20633;-72
2021/12/07 10:26:16;;;;;;;30.23;12.50;;;;;5.00;100373.00;;;;5016327;28;20309;-72
2021/12/07 10:29:09;;;;;;;30.27;12.67;;;;;5.10;100373.00;;;;4999872;28;20236;-73
2021/12/07 10:32:00;;;;;;;26.80;12.13;;;;;5.10;100357.00;;;;4983738;28;20238;-72
2021/12/07 10:34:47;;;;;;;30.93;12.43;;;;;5.00;100362.00;;;;4983433;28;20247;-71
2021/12/07 10:37:33;;;;;;;32.77;13.20;;;;;5.00;100350.00;;;;5019192;28;20985;-71
2021/12/07 10:40:21;;;;;;;31.03;12.67;;;;;5.00;100338.00;;;;4990649;28;20314;-71
2021/12/07 10:43:09;;;;;;;35.40;14.00;;;;;5.10;100336.00;;;;4984699;28;20242;-73
2021/12/07 10:45:55;;;;;;;27.83;13.77;;;;;5.10;100336.00;;;;4980047;28;20233;-74
2021/12/07 10:48:41;;;;;;;35.60;13.63;;;;;5.00;100346.00;;;;4983616;28;20230;-74
2021/12/07 10:51:27;;;;;;;37.70;14.10;;;;;5.10;100352.00;;;;5008174;28;20292;-72
2021/12/07 10:54:21;;;;;;;38.43;15.07;;;;;5.00;100348.00;;;;4988513;28;20353;-73
2021/12/07 10:57:09;;;;;;;38.97;15.30;;;;;5.10;100319.00;;;;4991142;28;20230;-72
2021/12/07 11:00:04;;;;;;;39.80;15.17;;;;;5.20;100337.00;;;;4998611;28;20747;-71
2021/12/07 11:02:56;;;;;;;44.60;17.83;;;;;5.30;100340.00;;;;4997665;28;20693;-70
2021/12/07 11:05:50;;;;;;;39.30;15.43;;;;;5.30;100340.00;;;;5008432;28;20238;-70
2021/12/07 11:08:37;;;;;;;41.23;15.83;;;;;5.20;100326.00;;;;5001147;28;20305;-73
2021/12/07 11:11:28;;;;;;;34.27;15.77;;;;;5.30;100335.00;;;;4989998;28;20722;-72
2021/12/07 11:14:14;;;;;;;40.27;15.20;;;;;5.20;100326.00;;;;5003298;28;20488;-74
2021/12/07 11:17:03;;;;;;;32.17;15.40;;;;;5.30;100316.00;;;;5015866;28;20328;-75
2021/12/07 11:19:51;;;;;;;37.87;15.37;;;;;5.40;100316.00;;;;4996803;28;20274;-72
2021/12/07 11:22:39;;;;;;;31.57;15.73;;;;;5.40;100313.00;;;;5028183;28;20233;-72
2021/12/07 11:25:53;;;;;;;36.63;16.00;;;;;5.40;100309.00;;;;4996881;28;20231;-73
2021/12/07 11:31:56;;;;;;;39.53;16.33;;;;;5.40;100307.00;;;;5013158;28;20242;-75
2021/12/07 11:34:44;;;;;;;30.93;15.03;;;;;5.50;100311.00;;;;5024762;28;20230;-72
2021/12/07 11:37:36;;;;;;;35.80;15.73;;;;;5.60;100299.00;;;;5026300;28;20234;-72
2021/12/07 11:40:25;;;;;;;30.53;14.43;;;;;5.60;100291.00;;;;5029562;28;20234;-73
2021/12/07 11:43:16;;;;;;;42.50;14.93;;;;;5.70;100286.00;;;;5030997;28;20233;-75
2021/12/07 11:46:03;;;;;;;40.10;14.93;;;;;5.80;100278.00;;;;4993819;28;20618;-73
2021/12/07 11:48:49;;;;;;;36.47;14.93;;;;;5.90;100267.00;;;;5005167;28;20745;-74
2021/12/07 11:51:38;;;;;;;25.87;13.27;;;;;6.10;100259.00;;;;5023212;28;20988;-73
2021/12/07 11:54:29;;;;;;;37.57;14.80;;;;;6.10;100256.00;;;;4991164;28;20233;-74
2021/12/07 11:57:18;;;;;;;26.67;12.67;;;;;6.60;100268.00;;;;5009330;28;20268;-73
2021/12/07 12:00:06;;;;;;;27.50;12.70;;;;;6.50;100260.00;;;;5004138;28;20237;-72
2021/12/07 12:02:53;;;;;;;22.43;11.33;;;;;6.60;100256.00;;;;5002701;28;20648;-72
2021/12/07 12:05:42;;;;;;;30.30;12.53;;;;;6.60;100259.00;;;;5009000;28;20249;-72
2021/12/07 12:08:30;;;;;;;30.67;11.63;;;;;6.70;100258.00;;;;5025669;28;20236;-72
2021/12/07 12:11:25;;;;;;;27.33;11.77;;;;;6.70;100256.00;;;;4993099;28;20254;-69
2021/12/07 12:14:35;;;;;;;25.97;11.83;;;;;6.80;100256.00;;;;4995875;28;20225;-68
2021/12/07 12:17:34;;;;;;;21.93;11.53;;;;;6.80;100254.00;;;;4984025;28;20286;-68
2021/12/07 12:20:32;;;;;;;30.10;10.87;;;;;6.70;100270.00;;;;4990408;28;20250;-71
2021/12/07 12:23:32;;;;;;;26.47;10.63;;;;;6.40;100257.00;;;;4999618;28;20233;-71
2021/12/07 12:26:25;;;;;;;20.67;10.13;;;;;6.30;100247.00;;;;4982173;28;20234;-73
2021/12/07 12:29:20;;;;;;;25.50;9.60;;;;;6.30;100265.00;;;;4993414;28;20706;-73
2021/12/07 12:32:08;;;;;;;23.23;9.90;;;;;6.20;100254.00;;;;4994362;28;20385;-72
2021/12/07 12:34:56;;;;;;;26.30;9.60;;;;;6.20;100259.00;;;;5006913;28;20243;-71
2021/12/07 12:37:47;;;;;;;17.93;8.40;;;;;6.20;100255.00;;;;5024628;28;20229;-72
2021/12/07 12:40:34;;;;;;;18.73;9.37;;;;;6.20;100246.00;;;;5002068;28;20239;-72
2021/12/07 12:43:34;;;;;;;18.97;8.17;;;;;6.30;100255.00;;;;5016568;28;20241;-71
2021/12/07 12:46:22;;;;;;;14.80;8.40;;;;;6.40;100256.00;;;;4994461;28;20689;-72
2021/12/07 12:49:11;;;;;;;20.50;7.40;;;;;6.40;100260.00;;;;4985211;28;20335;-72
2021/12/07 12:51:57;;;;;;;23.30;7.63;;;;;6.40;100252.00;;;;4985682;28;20257;-72
2021/12/07 12:54:49;;;;;;;15.90;6.67;;;;;6.50;100238.00;;;;4998511;28;20357;-73
2021/12/07 12:57:49;;;;;;;17.17;6.20;;;;;6.50;100241.00;;;;5005684;28;20242;-74
2021/12/07 13:01:07;;;;;;;20.63;6.43;;;;;6.50;100235.00;;;;5010988;28;20234;-74
2021/12/07 13:04:01;;;;;;;14.80;6.57;;;;;6.50;100230.00;;;;5016240;28;20240;-75
2021/12/07 13:06:53;;;;;;;21.37;7.23;;;;;6.70;100224.00;;;;4978745;28;20361;-76
2021/12/07 13:09:42;;;;;;;22.17;6.77;;;;;6.50;100221.00;;;;4982023;28;20226;-75
2021/12/07 13:12:33;;;;;;;19.73;6.73;;;;;6.60;100216.00;;;;4981139;28;20364;-74
2021/12/07 13:15:34;;;;;;;12.87;5.57;;;;;6.70;100214.00;;;;4981135;28;20336;-74
2021/12/07 13:18:27;;;;;;;18.87;5.47;;;;;6.60;100208.00;;;;4986859;28;20229;-75
2021/12/07 13:21:25;;;;;;;17.37;4.40;;;;;6.70;100185.00;;;;5002006;28;20679;-74
2021/12/07 13:24:14;;;;;;;12.17;4.40;;;;;6.50;100197.00;;;;5014546;28;20368;-75
2021/12/07 13:27:10;;;;;;;12.53;4.23;;;;;6.50;100190.00;;;;5002186;28;20241;-74
2021/12/07 13:29:56;;;;;;;13.73;4.10;;;;;6.40;100192.00;;;;5000774;28;20233;-74
2021/12/07 13:33:04;;;;;;;11.80;3.63;;;;;6.30;100187.00;;;;5006380;28;20240;-74
2021/12/07 13:35:53;;;;;;;11.70;3.87;;;;;6.30;100178.00;;;;4999520;28;20280;-74
2021/12/07 13:38:40;;;;;;;14.80;3.77;;;;;6.20;100177.00;;;;4999033;28;20233;-74
2021/12/07 13:41:26;;;;;;;12.53;3.60;;;;;6.20;100168.00;;;;4994354;28;20351;-75
2021/12/07 13:44:13;;;;;;;7.97;3.60;;;;;6.10;100167.00;;;;4997928;28;20229;-75
2021/12/07 13:47:04;;;;;;;12.17;3.40;;;;;6.00;100173.00;;;;4994497;28;20371;-74
2021/12/07 13:49:53;;;;;;;7.73;3.47;;;;;5.90;100166.00;;;;4996423;28;20225;-73
2021/12/07 13:52:43;;;;;;;11.83;3.30;;;;;5.80;100159.00;;;;4997194;28;20226;-72
2021/12/07 13:55:32;;;;;;;14.23;3.43;;;;;5.80;100163.00;;;;4994956;28;20358;-71
2021/12/07 13:58:18;;;;;;;17.50;3.73;;;;;5.90;100153.00;;;;5003261;28;20238;-72
2021/12/07 14:01:04;;;;;;;7.90;3.53;;;;;5.90;100139.00;;;;5014338;28;20411;-71
2021/12/07 14:03:51;;;;;;;13.87;3.57;;;;;5.80;100130.00;;;;4984714;28;20230;-75
2021/12/07 14:06:38;;;;;;;14.10;3.50;;;;;5.60;100143.00;;;;5004249;28;20261;-74
2021/12/07 14:09:26;;;;;;;10.97;3.53;;;;;5.50;100135.00;;;;5007972;28;20356;-74
2021/12/07 14:12:12;;;;;;;11.87;3.63;;;;;5.50;100123.00;;;;5003509;28;20326;-74
2021/12/07 14:15:13;;;;;;;11.93;3.17;;;;;5.40;100134.00;;;;5003930;28;20233;-74
2021/12/07 14:18:08;;;;;;;7.33;2.97;;;;;5.40;100128.00;;;;5000971;28;20237;-74
2021/12/07 14:20:57;;;;;;;12.97;3.33;;;;;5.20;100124.00;;;;4984441;28;20327;-74
2021/12/07 14:23:45;;;;;;;6.57;3.20;;;;;5.10;100121.00;;;;4968538;28;20712;-73
2021/12/07 14:26:36;;;;;;;10.97;3.17;;;;;5.10;100111.00;;;;4986331;28;20442;-73
2021/12/07 14:29:25;;;;;;;8.47;2.93;;;;;5.20;100104.00;;;;5007701;28;20264;-74
2021/12/07 14:32:11;;;;;;;7.60;2.90;;;;;5.20;100102.00;;;;4999166;28;20222;-74
2021/12/07 14:35:00;;;;;;;6.77;2.73;;;;;5.00;100093.00;;;;5001622;28;20312;-74
2021/12/07 14:37:46;;;;;;;12.30;2.80;;;;;4.90;100079.00;;;;4999114;28;20240;-74
2021/12/07 14:40:33;;;;;;;10.57;3.20;;;;;4.90;100065.00;;;;5000234;28;20233;-72
2021/12/07 14:43:29;;;;;;;11.13;3.30;;;;;4.90;100065.00;;;;4979820;28;20301;-74
2021/12/07 14:46:17;;;;;;;9.60;3.47;;;;;4.90;100059.00;;;;4983115;28;20305;-73
2021/12/07 14:49:04;;;;;;;8.97;3.40;;;;;4.90;100062.00;;;;4978993;28;20238;-69
2021/12/07 14:51:51;;;;;;;11.87;3.90;;;;;4.80;100057.00;;;;4980270;28;20234;-73
2021/12/07 14:54:37;;;;;;;15.87;3.23;;;;;4.60;100064.00;;;;5006637;28;20654;-75
2021/12/07 14:57:25;;;;;;;7.67;3.03;;;;;4.50;100061.00;;;;5014300;28;20280;-74
2021/12/07 15:00:14;;;;;;;8.07;3.27;;;;;4.50;100060.00;;;;5012800;28;20232;-74
2021/12/07 15:03:01;;;;;;;15.27;3.77;;;;;4.40;100051.00;;;;4984244;28;20261;-73
2021/12/07 15:05:48;;;;;;;8.87;3.07;;;;;4.30;100038.00;;;;4978217;28;20235;-74
2021/12/07 15:08:35;;;;;;;6.93;3.30;;;;;4.30;100036.00;;;;5007044;28;20253;-73
2021/12/07 15:11:21;;;;;;;7.10;3.53;;;;;4.30;100045.00;;;;5011951;28;20249;-72
2021/12/07 15:14:09;;;;;;;7.10;3.13;;;;;4.10;100041.00;;;;4996151;28;20230;-73
2021/12/07 15:16:58;;;;;;;5.47;2.97;;;;;4.10;100038.00;;;;5005802;28;20237;-73
2021/12/07 15:19:44;;;;;;;12.03;3.10;;;;;4.00;100017.00;;;;4981543;28;20234;-73